sensor_id;sensor_type;location;lat;lon;timestamp;P1;durP1;ratioP1;P2;durP2;ratioP2
3845;SDS011;1938;50.812;7.738;2023-11-21T00:00:54;9.97;;;6.20;;
3845;SDS011;1938;50.812;7.738;2023-11-21T00:03:20;14.77;;;7.57;;
3845;SDS011;1938;50.812;7.738;2023-11-21T00:05:48;11.73;;;5.93;;
3845;SDS011;1938;50.812;7.738;2023-11-21T00:08:14;11.93;;;6.83;;
3845;SDS011;1938;50.812;7.738;2023-11-21T00:10:39;12.77;;;6.60;;
3845;SDS011;1938;50.812;7.738;2023-11-21T00:13:05;12.87;;;6.63;;
3845;SDS011;1938;50.812;7.738;2023-11-21T00:15:31;14.60;;;7.90;;
3845;SDS011;1938;50.812;7.738;2023-11-21T00:17:57;12.83;;;6.93;;
3845;SDS011;1938;50.812;7.738;2023-11-21T00:20:22;17.27;;;7.40;;
3845;SDS011;1938;50.812;7.738;2023-11-21T00:22:48;17.03;;;7.60;;
3845;SDS011;1938;50.812;7.738;2023-11-21T00:25:14;17.43;;;8.40;;
3845;SDS011;1938;50.812;7.738;2023-11-21T00:27:41;12.43;;;7.50;;
3845;SDS011;1938;50.812;7.738;2023-11-21T00:30:08;15.50;;;7.97;;
3845;SDS011;1938;50.812;7.738;2023-11-21T00:32:35;21.73;;;8.57;;
3845;SDS011;1938;50.812;7.738;2023-11-21T00:35:01;19.27;;;7.60;;
3845;SDS011;1938;50.812;7.738;2023-11-21T00:37:27;36.37;;;9.17;;
3845;SDS011;1938;50.812;7.738;2023-11-21T00:39:53;20.57;;;8.27;;
3845;SDS011;1938;50.812;7.738;2023-11-21T00:42:18;14.87;;;7.70;;
3845;SDS011;1938;50.812;7.738;2023-11-21T00:44:44;15.63;;;8.27;;
3845;SDS011;1938;50.812;7.738;2023-11-21T00:47:10;17.77;;;7.87;;
3845;SDS011;1938;50.812;7.738;2023-11-21T00:49:35;13.43;;;7.27;;
3845;SDS011;1938;50.812;7.738;2023-11-21T00:52:01;18.47;;;9.40;;
3845;SDS011;1938;50.812;7.738;2023-11-21T00:54:27;18.37;;;8.23;;
3845;SDS011;1938;50.812;7.738;2023-11-21T00:56:53;26.00;;;7.20;;
3845;SDS011;1938;50.812;7.738;2023-11-21T00:59:18;16.97;;;8.87;;
3845;SDS011;1938;50.812;7.738;2023-11-21T01:01:44;15.90;;;8.17;;
3845;SDS011;1938;50.812;7.738;2023-11-21T01:04:09;18.17;;;8.67;;
3845;SDS011;1938;50.812;7.738;2023-11-21T01:06:36;14.80;;;7.67;;
3845;SDS011;1938;50.812;7.738;2023-11-21T01:09:02;17.13;;;7.30;;
3845;SDS011;1938;50.812;7.738;2023-11-21T01:11:33;16.37;;;8.43;;
3845;SDS011;1938;50.812;7.738;2023-11-21T01:14:03;17.40;;;8.23;;
3845;SDS011;1938;50.812;7.738;2023-11-21T01:16:29;21.73;;;8.87;;
3845;SDS011;1938;50.812;7.738;2023-11-21T01:18:56;20.83;;;8.37;;
3845;SDS011;1938;50.812;7.738;2023-11-21T01:21:23;16.20;;;8.10;;
3845;SDS011;1938;50.812;7.738;2023-11-21T01:23:48;17.00;;;7.90;;
3845;SDS011;1938;50.812;7.738;2023-11-21T01:26:14;21.73;;;7.83;;
3845;SDS011;1938;50.812;7.738;2023-11-21T01:28:40;14.00;;;7.53;;
3845;SDS011;1938;50.812;7.738;2023-11-21T01:31:05;15.63;;;8.27;;
3845;SDS011;1938;50.812;7.738;2023-11-21T01:33:32;16.00;;;7.93;;
3845;SDS011;1938;50.812;7.738;2023-11-21T01:35:58;15.00;;;7.03;;
3845;SDS011;1938;50.812;7.738;2023-11-21T01:38:24;22.00;;;9.90;;
3845;SDS011;1938;50.812;7.738;2023-11-21T01:40:50;18.93;;;7.23;;
3845;SDS011;1938;50.812;7.738;2023-11-21T01:43:16;14.70;;;7.37;;
3845;SDS011;1938;50.812;7.738;2023-11-21T01:45:41;22.33;;;8.20;;
3845;SDS011;1938;50.812;7.738;2023-11-21T01:48:07;19.50;;;9.37;;
3845;SDS011;1938;50.812;7.738;2023-11-21T01:50:34;21.57;;;9.37;;
3845;SDS011;1938;50.812;7.738;2023-11-21T01:52:59;22.90;;;9.10;;
3845;SDS011;1938;50.812;7.738;2023-11-21T01:55:26;21.17;;;9.20;;
3845;SDS011;1938;50.812;7.738;2023-11-21T01:57:53;15.13;;;8.27;;
3845;SDS011;1938;50.812;7.738;2023-11-21T02:00:20;25.80;;;9.30;;
3845;SDS011;1938;50.812;7.738;2023-11-21T02:02:46;29.00;;;7.60;;
3845;SDS011;1938;50.812;7.738;2023-11-21T02:05:13;15.70;;;8.40;;
3845;SDS011;1938;50.812;7.738;2023-11-21T02:07:42;17.37;;;6.63;;
3845;SDS011;1938;50.812;7.738;2023-11-21T02:10:08;16.20;;;9.00;;
3845;SDS011;1938;50.812;7.738;2023-11-21T02:12:34;23.37;;;8.40;;
3845;SDS011;1938;50.812;7.738;2023-11-21T02:15:02;20.67;;;9.40;;
3845;SDS011;1938;50.812;7.738;2023-11-21T02:17:31;15.17;;;8.70;;
3845;SDS011;1938;50.812;7.738;2023-11-21T02:19:57;14.90;;;8.33;;
3845;SDS011;1938;50.812;7.738;2023-11-21T02:22:24;18.97;;;8.47;;
3845;SDS011;1938;50.812;7.738;2023-11-21T02:24:55;18.43;;;8.57;;
3845;SDS011;1938;50.812;7.738;2023-11-21T02:27:22;15.60;;;8.60;;
3845;SDS011;1938;50.812;7.738;2023-11-21T02:29:50;15.50;;;7.90;;
3845;SDS011;1938;50.812;7.738;2023-11-21T02:32:15;19.40;;;7.63;;
3845;SDS011;1938;50.812;7.738;2023-11-21T02:34:44;17.73;;;8.10;;
3845;SDS011;1938;50.812;7.738;2023-11-21T02:37:09;16.13;;;8.00;;
3845;SDS011;1938;50.812;7.738;2023-11-21T02:39:36;22.23;;;9.63;;
3845;SDS011;1938;50.812;7.738;2023-11-21T02:42:02;15.27;;;8.17;;
3845;SDS011;1938;50.812;7.738;2023-11-21T02:44:28;15.83;;;8.30;;
3845;SDS011;1938;50.812;7.738;2023-11-21T02:46:54;15.03;;;8.10;;
3845;SDS011;1938;50.812;7.738;2023-11-21T02:49:20;16.63;;;7.87;;
3845;SDS011;1938;50.812;7.738;2023-11-21T02:51:45;17.03;;;9.10;;
3845;SDS011;1938;50.812;7.738;2023-11-21T02:54:12;17.37;;;8.23;;
3845;SDS011;1938;50.812;7.738;2023-11-21T02:56:37;22.83;;;7.23;;
3845;SDS011;1938;50.812;7.738;2023-11-21T02:59:04;22.63;;;8.97;;
3845;SDS011;1938;50.812;7.738;2023-11-21T03:01:30;21.93;;;8.20;;
3845;SDS011;1938;50.812;7.738;2023-11-21T03:03:56;28.63;;;8.37;;
3845;SDS011;1938;50.812;7.738;2023-11-21T03:06:23;20.37;;;8.93;;
3845;SDS011;1938;50.812;7.738;2023-11-21T03:08:48;16.70;;;8.77;;
3845;SDS011;1938;50.812;7.738;2023-11-21T03:11:14;19.40;;;9.53;;
3845;SDS011;1938;50.812;7.738;2023-11-21T03:13:40;25.10;;;10.20;;
3845;SDS011;1938;50.812;7.738;2023-11-21T03:16:07;21.20;;;8.30;;
3845;SDS011;1938;50.812;7.738;2023-11-21T03:18:34;21.23;;;9.00;;
3845;SDS011;1938;50.812;7.738;2023-11-21T03:20:59;22.47;;;9.87;;
3845;SDS011;1938;50.812;7.738;2023-11-21T03:23:25;24.53;;;11.20;;
3845;SDS011;1938;50.812;7.738;2023-11-21T03:25:50;27.37;;;10.40;;
3845;SDS011;1938;50.812;7.738;2023-11-21T03:28:16;21.90;;;9.40;;
3845;SDS011;1938;50.812;7.738;2023-11-21T03:30:41;21.10;;;9.30;;
3845;SDS011;1938;50.812;7.738;2023-11-21T03:33:08;23.60;;;10.37;;
3845;SDS011;1938;50.812;7.738;2023-11-21T03:35:33;24.23;;;10.00;;
3845;SDS011;1938;50.812;7.738;2023-11-21T03:37:59;24.53;;;12.50;;
3845;SDS011;1938;50.812;7.738;2023-11-21T03:40:24;25.60;;;12.37;;
3845;SDS011;1938;50.812;7.738;2023-11-21T03:42:51;25.63;;;12.07;;
3845;SDS011;1938;50.812;7.738;2023-11-21T03:45:17;19.97;;;10.03;;
3845;SDS011;1938;50.812;7.738;2023-11-21T03:47:42;26.90;;;10.13;;
3845;SDS011;1938;50.812;7.738;2023-11-21T03:50:08;24.97;;;10.57;;
3845;SDS011;1938;50.812;7.738;2023-11-21T03:52:35;30.83;;;11.77;;
3845;SDS011;1938;50.812;7.738;2023-11-21T03:55:01;28.47;;;11.23;;
3845;SDS011;1938;50.812;7.738;2023-11-21T03:57:27;22.23;;;10.50;;
3845;SDS011;1938;50.812;7.738;2023-11-21T03:59:53;32.53;;;11.40;;
3845;SDS011;1938;50.812;7.738;2023-11-21T04:02:19;28.50;;;10.17;;
3845;SDS011;1938;50.812;7.738;2023-11-21T04:04:44;21.20;;;9.60;;
3845;SDS011;1938;50.812;7.738;2023-11-21T04:07:10;27.23;;;11.60;;
3845;SDS011;1938;50.812;7.738;2023-11-21T04:09:36;25.73;;;12.57;;
3845;SDS011;1938;50.812;7.738;2023-11-21T04:12:02;22.53;;;9.90;;
3845;SDS011;1938;50.812;7.738;2023-11-21T04:14:27;24.43;;;9.90;;
3845;SDS011;1938;50.812;7.738;2023-11-21T04:16:53;22.23;;;10.87;;
3845;SDS011;1938;50.812;7.738;2023-11-21T04:19:19;24.87;;;9.93;;
3845;SDS011;1938;50.812;7.738;2023-11-21T04:21:44;20.97;;;9.07;;
3845;SDS011;1938;50.812;7.738;2023-11-21T04:24:11;28.57;;;10.10;;
3845;SDS011;1938;50.812;7.738;2023-11-21T04:26:36;20.23;;;8.90;;
3845;SDS011;1938;50.812;7.738;2023-11-21T04:29:03;22.17;;;10.60;;
3845;SDS011;1938;50.812;7.738;2023-11-21T04:31:29;24.47;;;10.00;;
3845;SDS011;1938;50.812;7.738;2023-11-21T04:33:55;25.93;;;10.37;;
3845;SDS011;1938;50.812;7.738;2023-11-21T04:36:21;24.47;;;10.43;;
3845;SDS011;1938;50.812;7.738;2023-11-21T04:38:46;29.83;;;12.13;;
3845;SDS011;1938;50.812;7.738;2023-11-21T04:41:12;25.47;;;10.30;;
3845;SDS011;1938;50.812;7.738;2023-11-21T04:43:38;25.63;;;11.60;;
3845;SDS011;1938;50.812;7.738;2023-11-21T04:46:04;26.63;;;11.27;;
3845;SDS011;1938;50.812;7.738;2023-11-21T04:48:30;20.87;;;9.17;;
3845;SDS011;1938;50.812;7.738;2023-11-21T04:50:55;26.60;;;10.93;;
3845;SDS011;1938;50.812;7.738;2023-11-21T04:53:21;18.17;;;10.37;;
3845;SDS011;1938;50.812;7.738;2023-11-21T04:55:46;21.17;;;9.87;;
3845;SDS011;1938;50.812;7.738;2023-11-21T04:58:13;31.13;;;11.20;;
3845;SDS011;1938;50.812;7.738;2023-11-21T05:00:39;23.43;;;10.07;;
3845;SDS011;1938;50.812;7.738;2023-11-21T05:03:04;20.93;;;11.10;;
3845;SDS011;1938;50.812;7.738;2023-11-21T05:05:32;32.60;;;10.67;;
3845;SDS011;1938;50.812;7.738;2023-11-21T05:07:58;20.63;;;10.10;;
3845;SDS011;1938;50.812;7.738;2023-11-21T05:10:25;28.20;;;12.87;;
3845;SDS011;1938;50.812;7.738;2023-11-21T05:12:51;111.43;;;17.43;;
3845;SDS011;1938;50.812;7.738;2023-11-21T05:15:16;27.07;;;11.33;;
3845;SDS011;1938;50.812;7.738;2023-11-21T05:17:42;34.23;;;12.27;;
3845;SDS011;1938;50.812;7.738;2023-11-21T05:20:12;24.37;;;8.13;;
3845;SDS011;1938;50.812;7.738;2023-11-21T05:22:39;27.30;;;11.73;;
3845;SDS011;1938;50.812;7.738;2023-11-21T05:25:07;24.40;;;10.60;;
3845;SDS011;1938;50.812;7.738;2023-11-21T05:27:33;25.93;;;11.33;;
3845;SDS011;1938;50.812;7.738;2023-11-21T05:30:01;27.80;;;10.40;;
3845;SDS011;1938;50.812;7.738;2023-11-21T05:32:30;30.87;;;10.20;;
3845;SDS011;1938;50.812;7.738;2023-11-21T05:34:55;18.00;;;9.60;;
3845;SDS011;1938;50.812;7.738;2023-11-21T05:37:21;24.37;;;9.53;;
3845;SDS011;1938;50.812;7.738;2023-11-21T05:39:48;25.90;;;9.90;;
3845;SDS011;1938;50.812;7.738;2023-11-21T05:42:13;20.80;;;8.20;;
3845;SDS011;1938;50.812;7.738;2023-11-21T05:44:41;19.27;;;8.63;;
3845;SDS011;1938;50.812;7.738;2023-11-21T05:47:07;22.17;;;9.33;;
3845;SDS011;1938;50.812;7.738;2023-11-21T05:49:33;22.07;;;10.30;;
3845;SDS011;1938;50.812;7.738;2023-11-21T05:51:59;34.07;;;9.87;;
3845;SDS011;1938;50.812;7.738;2023-11-21T05:54:25;18.27;;;9.70;;
3845;SDS011;1938;50.812;7.738;2023-11-21T05:56:51;26.53;;;11.27;;
3845;SDS011;1938;50.812;7.738;2023-11-21T05:59:16;18.50;;;9.00;;
3845;SDS011;1938;50.812;7.738;2023-11-21T06:01:43;31.63;;;11.80;;
3845;SDS011;1938;50.812;7.738;2023-11-21T06:04:10;25.47;;;11.43;;
3845;SDS011;1938;50.812;7.738;2023-11-21T06:06:36;28.43;;;11.53;;
3845;SDS011;1938;50.812;7.738;2023-11-21T06:09:02;27.17;;;11.27;;
3845;SDS011;1938;50.812;7.738;2023-11-21T06:11:27;22.80;;;10.50;;
3845;SDS011;1938;50.812;7.738;2023-11-21T06:13:54;26.87;;;13.13;;
3845;SDS011;1938;50.812;7.738;2023-11-21T06:16:19;26.13;;;10.97;;
3845;SDS011;1938;50.812;7.738;2023-11-21T06:18:47;22.40;;;9.97;;
3845;SDS011;1938;50.812;7.738;2023-11-21T06:21:12;32.20;;;11.10;;
3845;SDS011;1938;50.812;7.738;2023-11-21T06:23:38;36.00;;;11.87;;
3845;SDS011;1938;50.812;7.738;2023-11-21T06:26:04;32.33;;;12.70;;
3845;SDS011;1938;50.812;7.738;2023-11-21T06:28:31;22.10;;;10.53;;
3845;SDS011;1938;50.812;7.738;2023-11-21T06:30:57;25.60;;;11.07;;
3845;SDS011;1938;50.812;7.738;2023-11-21T06:33:31;32.53;;;14.13;;
3845;SDS011;1938;50.812;7.738;2023-11-21T06:35:57;30.23;;;11.87;;
3845;SDS011;1938;50.812;7.738;2023-11-21T06:38:23;33.67;;;13.00;;
3845;SDS011;1938;50.812;7.738;2023-11-21T06:40:50;37.53;;;13.63;;
3845;SDS011;1938;50.812;7.738;2023-11-21T06:43:15;26.00;;;12.27;;
3845;SDS011;1938;50.812;7.738;2023-11-21T06:45:41;28.50;;;12.70;;
3845;SDS011;1938;50.812;7.738;2023-11-21T06:48:06;27.90;;;13.10;;
3845;SDS011;1938;50.812;7.738;2023-11-21T06:50:32;27.10;;;11.57;;
3845;SDS011;1938;50.812;7.738;2023-11-21T06:52:57;28.00;;;11.33;;
3845;SDS011;1938;50.812;7.738;2023-11-21T06:55:23;25.63;;;14.13;;
3845;SDS011;1938;50.812;7.738;2023-11-21T06:57:48;35.23;;;13.60;;
3845;SDS011;1938;50.812;7.738;2023-11-21T07:00:15;32.00;;;15.03;;
3845;SDS011;1938;50.812;7.738;2023-11-21T07:02:42;41.37;;;19.70;;
3845;SDS011;1938;50.812;7.738;2023-11-21T07:05:08;26.30;;;12.43;;
3845;SDS011;1938;50.812;7.738;2023-11-21T07:07:34;22.57;;;10.30;;
3845;SDS011;1938;50.812;7.738;2023-11-21T07:10:03;21.03;;;11.83;;
3845;SDS011;1938;50.812;7.738;2023-11-21T07:12:30;19.80;;;9.50;;
3845;SDS011;1938;50.812;7.738;2023-11-21T07:14:57;21.40;;;11.00;;
3845;SDS011;1938;50.812;7.738;2023-11-21T07:17:23;21.40;;;9.67;;
3845;SDS011;1938;50.812;7.738;2023-11-21T07:19:49;30.87;;;11.27;;
3845;SDS011;1938;50.812;7.738;2023-11-21T07:22:15;21.50;;;11.00;;
3845;SDS011;1938;50.812;7.738;2023-11-21T07:24:49;23.70;;;10.97;;
3845;SDS011;1938;50.812;7.738;2023-11-21T07:27:18;29.70;;;11.23;;
3845;SDS011;1938;50.812;7.738;2023-11-21T07:29:43;49.47;;;11.60;;
3845;SDS011;1938;50.812;7.738;2023-11-21T07:32:09;28.73;;;11.30;;
3845;SDS011;1938;50.812;7.738;2023-11-21T07:34:36;34.20;;;9.97;;
3845;SDS011;1938;50.812;7.738;2023-11-21T07:37:02;25.13;;;9.67;;
3845;SDS011;1938;50.812;7.738;2023-11-21T07:39:28;20.10;;;9.17;;
3845;SDS011;1938;50.812;7.738;2023-11-21T07:41:55;23.27;;;10.77;;
3845;SDS011;1938;50.812;7.738;2023-11-21T07:44:21;23.47;;;10.80;;
3845;SDS011;1938;50.812;7.738;2023-11-21T07:46:47;26.43;;;12.17;;
3845;SDS011;1938;50.812;7.738;2023-11-21T07:49:12;25.93;;;10.80;;
3845;SDS011;1938;50.812;7.738;2023-11-21T07:51:42;23.03;;;10.50;;
3845;SDS011;1938;50.812;7.738;2023-11-21T07:54:08;23.57;;;10.17;;
3845;SDS011;1938;50.812;7.738;2023-11-21T07:56:35;24.40;;;11.87;;
3845;SDS011;1938;50.812;7.738;2023-11-21T07:59:01;44.77;;;18.07;;
3845;SDS011;1938;50.812;7.738;2023-11-21T08:01:27;141.40;;;15.50;;
3845;SDS011;1938;50.812;7.738;2023-11-21T08:03:53;58.27;;;11.17;;
3845;SDS011;1938;50.812;7.738;2023-11-21T08:06:21;108.40;;;12.27;;
3845;SDS011;1938;50.812;7.738;2023-11-21T08:08:49;247.57;;;17.93;;
3845;SDS011;1938;50.812;7.738;2023-11-21T08:11:14;97.80;;;10.97;;
3845;SDS011;1938;50.812;7.738;2023-11-21T08:13:40;61.80;;;9.73;;
3845;SDS011;1938;50.812;7.738;2023-11-21T08:16:05;104.57;;;12.80;;
3845;SDS011;1938;50.812;7.738;2023-11-21T08:18:32;62.50;;;9.63;;
3845;SDS011;1938;50.812;7.738;2023-11-21T08:20:59;42.70;;;10.13;;
3845;SDS011;1938;50.812;7.738;2023-11-21T08:23:25;25.30;;;11.43;;
3845;SDS011;1938;50.812;7.738;2023-11-21T08:25:52;25.00;;;10.77;;
3845;SDS011;1938;50.812;7.738;2023-11-21T08:28:18;35.47;;;14.67;;
3845;SDS011;1938;50.812;7.738;2023-11-21T08:30:44;28.90;;;13.70;;
3845;SDS011;1938;50.812;7.738;2023-11-21T08:33:10;31.20;;;12.17;;
3845;SDS011;1938;50.812;7.738;2023-11-21T08:35:38;37.20;;;15.23;;
3845;SDS011;1938;50.812;7.738;2023-11-21T08:38:05;33.50;;;14.20;;
3845;SDS011;1938;50.812;7.738;2023-11-21T08:40:31;39.73;;;14.23;;
3845;SDS011;1938;50.812;7.738;2023-11-21T08:42:57;43.80;;;13.70;;
3845;SDS011;1938;50.812;7.738;2023-11-21T08:45:26;28.50;;;13.00;;
3845;SDS011;1938;50.812;7.738;2023-11-21T08:47:51;40.33;;;13.67;;
3845;SDS011;1938;50.812;7.738;2023-11-21T08:50:18;45.37;;;15.30;;
3845;SDS011;1938;50.812;7.738;2023-11-21T08:52:44;29.47;;;12.60;;
3845;SDS011;1938;50.812;7.738;2023-11-21T08:55:11;29.40;;;13.27;;
3845;SDS011;1938;50.812;7.738;2023-11-21T08:57:40;27.03;;;12.77;;
3845;SDS011;1938;50.812;7.738;2023-11-21T09:00:07;28.13;;;12.53;;
3845;SDS011;1938;50.812;7.738;2023-11-21T09:02:41;31.30;;;13.53;;
3845;SDS011;1938;50.812;7.738;2023-11-21T09:05:08;27.03;;;11.73;;
3845;SDS011;1938;50.812;7.738;2023-11-21T09:07:34;30.50;;;11.53;;
3845;SDS011;1938;50.812;7.738;2023-11-21T09:10:01;24.53;;;10.60;;
3845;SDS011;1938;50.812;7.738;2023-11-21T09:12:27;29.00;;;11.87;;
3845;SDS011;1938;50.812;7.738;2023-11-21T09:14:53;33.10;;;14.83;;
3845;SDS011;1938;50.812;7.738;2023-11-21T09:17:18;30.27;;;13.67;;
3845;SDS011;1938;50.812;7.738;2023-11-21T09:19:45;29.50;;;13.23;;
3845;SDS011;1938;50.812;7.738;2023-11-21T09:22:15;31.10;;;12.83;;
3845;SDS011;1938;50.812;7.738;2023-11-21T09:24:41;28.93;;;11.97;;
3845;SDS011;1938;50.812;7.738;2023-11-21T09:27:07;30.10;;;12.27;;
3845;SDS011;1938;50.812;7.738;2023-11-21T09:29:34;34.60;;;13.87;;
3845;SDS011;1938;50.812;7.738;2023-11-21T09:32:06;51.23;;;14.67;;
3845;SDS011;1938;50.812;7.738;2023-11-21T09:34:33;37.90;;;13.53;;
3845;SDS011;1938;50.812;7.738;2023-11-21T09:37:04;34.17;;;13.67;;
3845;SDS011;1938;50.812;7.738;2023-11-21T09:39:33;34.53;;;15.10;;
3845;SDS011;1938;50.812;7.738;2023-11-21T09:42:04;32.13;;;15.10;;
3845;SDS011;1938;50.812;7.738;2023-11-21T09:47:26;32.17;;;13.90;;
3845;SDS011;1938;50.812;7.738;2023-11-21T09:49:52;39.67;;;14.60;;
3845;SDS011;1938;50.812;7.738;2023-11-21T09:52:24;36.90;;;13.83;;
3845;SDS011;1938;50.812;7.738;2023-11-21T09:54:52;45.07;;;15.47;;
3845;SDS011;1938;50.812;7.738;2023-11-21T09:57:24;42.40;;;14.97;;
3845;SDS011;1938;50.812;7.738;2023-11-21T09:59:53;47.73;;;17.03;;
3845;SDS011;1938;50.812;7.738;2023-11-21T10:02:24;44.03;;;16.70;;
3845;SDS011;1938;50.812;7.738;2023-11-21T10:04:53;53.53;;;17.53;;
3845;SDS011;1938;50.812;7.738;2023-11-21T10:07:20;47.73;;;15.27;;
3845;SDS011;1938;50.812;7.738;2023-11-21T10:09:46;37.17;;;15.40;;
3845;SDS011;1938;50.812;7.738;2023-11-21T10:12:13;47.73;;;15.27;;
3845;SDS011;1938;50.812;7.738;2023-11-21T10:14:41;45.97;;;17.80;;
3845;SDS011;1938;50.812;7.738;2023-11-21T10:17:09;46.47;;;17.40;;
3845;SDS011;1938;50.812;7.738;2023-11-21T10:19:37;51.17;;;18.40;;
3845;SDS011;1938;50.812;7.738;2023-11-21T10:22:04;54.80;;;17.63;;
3845;SDS011;1938;50.812;7.738;2023-11-21T10:24:32;53.83;;;18.13;;
3845;SDS011;1938;50.812;7.738;2023-11-21T10:26:59;53.83;;;18.77;;
3845;SDS011;1938;50.812;7.738;2023-11-21T10:29:28;44.30;;;17.90;;
3845;SDS011;1938;50.812;7.738;2023-11-21T10:31:55;42.53;;;17.97;;
3845;SDS011;1938;50.812;7.738;2023-11-21T10:34:22;39.50;;;15.77;;
3845;SDS011;1938;50.812;7.738;2023-11-21T10:36:48;43.60;;;15.80;;
3845;SDS011;1938;50.812;7.738;2023-11-21T10:39:17;41.80;;;17.57;;
3845;SDS011;1938;50.812;7.738;2023-11-21T10:41:44;41.43;;;16.60;;
3845;SDS011;1938;50.812;7.738;2023-11-21T10:44:11;42.17;;;16.43;;
3845;SDS011;1938;50.812;7.738;2023-11-21T10:46:39;36.40;;;15.87;;
3845;SDS011;1938;50.812;7.738;2023-11-21T10:49:05;31.67;;;14.10;;
3845;SDS011;1938;50.812;7.738;2023-11-21T10:51:31;39.83;;;16.27;;
3845;SDS011;1938;50.812;7.738;2023-11-21T10:53:59;43.33;;;14.57;;
3845;SDS011;1938;50.812;7.738;2023-11-21T10:56:25;33.47;;;15.97;;
3845;SDS011;1938;50.812;7.738;2023-11-21T10:58:53;48.47;;;17.03;;
3845;SDS011;1938;50.812;7.738;2023-11-21T11:01:19;34.13;;;14.10;;
3845;SDS011;1938;50.812;7.738;2023-11-21T11:03:46;36.77;;;14.90;;
3845;SDS011;1938;50.812;7.738;2023-11-21T11:06:13;32.67;;;12.93;;
3845;SDS011;1938;50.812;7.738;2023-11-21T11:08:40;30.10;;;12.23;;
3845;SDS011;1938;50.812;7.738;2023-11-21T11:11:06;29.30;;;14.30;;
3845;SDS011;1938;50.812;7.738;2023-11-21T11:13:32;36.07;;;15.13;;
3845;SDS011;1938;50.812;7.738;2023-11-21T11:15:58;40.83;;;14.53;;
3845;SDS011;1938;50.812;7.738;2023-11-21T11:18:29;36.00;;;14.03;;
3845;SDS011;1938;50.812;7.738;2023-11-21T11:20:58;30.83;;;13.50;;
3845;SDS011;1938;50.812;7.738;2023-11-21T11:31:50;28.03;;;13.27;;
3845;SDS011;1938;50.812;7.738;2023-11-21T11:34:36;31.80;;;14.50;;
3845;SDS011;1938;50.812;7.738;2023-11-21T11:37:11;31.10;;;12.80;;
3845;SDS011;1938;50.812;7.738;2023-11-21T11:39:39;26.67;;;12.40;;
3845;SDS011;1938;50.812;7.738;2023-11-21T11:42:10;21.90;;;10.50;;
3845;SDS011;1938;50.812;7.738;2023-11-21T11:47:32;31.13;;;13.83;;
3845;SDS011;1938;50.812;7.738;2023-11-21T11:52:46;23.20;;;11.53;;
3845;SDS011;1938;50.812;7.738;2023-11-21T11:55:14;32.50;;;11.40;;
3845;SDS011;1938;50.812;7.738;2023-11-21T11:57:45;26.30;;;10.20;;
3845;SDS011;1938;50.812;7.738;2023-11-21T12:02:46;28.03;;;11.37;;
3845;SDS011;1938;50.812;7.738;2023-11-21T12:05:27;32.47;;;11.10;;
3845;SDS011;1938;50.812;7.738;2023-11-21T12:10:29;24.17;;;12.67;;
3845;SDS011;1938;50.812;7.738;2023-11-21T12:12:59;25.93;;;11.87;;
3845;SDS011;1938;50.812;7.738;2023-11-21T12:15:35;23.53;;;10.83;;
3845;SDS011;1938;50.812;7.738;2023-11-21T12:18:02;41.03;;;12.97;;
3845;SDS011;1938;50.812;7.738;2023-11-21T12:20:28;28.77;;;11.17;;
3845;SDS011;1938;50.812;7.738;2023-11-21T12:22:56;35.67;;;12.03;;
3845;SDS011;1938;50.812;7.738;2023-11-21T12:25:29;29.23;;;12.27;;
3845;SDS011;1938;50.812;7.738;2023-11-21T12:28:00;28.33;;;10.83;;
3845;SDS011;1938;50.812;7.738;2023-11-21T12:30:31;24.70;;;10.80;;
3845;SDS011;1938;50.812;7.738;2023-11-21T12:33:00;29.93;;;11.30;;
3845;SDS011;1938;50.812;7.738;2023-11-21T12:35:28;34.40;;;11.60;;
3845;SDS011;1938;50.812;7.738;2023-11-21T12:38:02;29.53;;;11.50;;
3845;SDS011;1938;50.812;7.738;2023-11-21T12:40:28;30.07;;;12.10;;
3845;SDS011;1938;50.812;7.738;2023-11-21T12:42:55;29.63;;;10.90;;
3845;SDS011;1938;50.812;7.738;2023-11-21T12:45:22;28.90;;;12.87;;
3845;SDS011;1938;50.812;7.738;2023-11-21T12:47:50;36.17;;;11.97;;
3845;SDS011;1938;50.812;7.738;2023-11-21T12:50:24;30.50;;;10.47;;
3845;SDS011;1938;50.812;7.738;2023-11-21T12:52:53;31.77;;;12.37;;
3845;SDS011;1938;50.812;7.738;2023-11-21T12:55:22;37.93;;;10.57;;
3845;SDS011;1938;50.812;7.738;2023-11-21T12:57:49;27.67;;;11.73;;
3845;SDS011;1938;50.812;7.738;2023-11-21T13:00:33;33.77;;;11.60;;
3845;SDS011;1938;50.812;7.738;2023-11-21T13:03:02;35.73;;;10.93;;
3845;SDS011;1938;50.812;7.738;2023-11-21T13:05:35;28.97;;;10.97;;
3845;SDS011;1938;50.812;7.738;2023-11-21T13:08:07;32.73;;;11.80;;
3845;SDS011;1938;50.812;7.738;2023-11-21T13:10:38;29.20;;;11.50;;
3845;SDS011;1938;50.812;7.738;2023-11-21T13:13:07;25.93;;;11.40;;
3845;SDS011;1938;50.812;7.738;2023-11-21T13:15:34;27.00;;;10.73;;
3845;SDS011;1938;50.812;7.738;2023-11-21T13:18:03;32.77;;;11.30;;
3845;SDS011;1938;50.812;7.738;2023-11-21T13:20:29;31.50;;;10.23;;
3845;SDS011;1938;50.812;7.738;2023-11-21T13:22:55;66.90;;;11.50;;
3845;SDS011;1938;50.812;7.738;2023-11-21T13:25:27;23.07;;;9.10;;
3845;SDS011;1938;50.812;7.738;2023-11-21T13:27:53;31.37;;;10.90;;
3845;SDS011;1938;50.812;7.738;2023-11-21T13:30:20;30.53;;;11.50;;
3845;SDS011;1938;50.812;7.738;2023-11-21T13:32:55;35.03;;;12.30;;
3845;SDS011;1938;50.812;7.738;2023-11-21T13:35:28;23.20;;;11.43;;
3845;SDS011;1938;50.812;7.738;2023-11-21T13:38:06;24.47;;;10.13;;
3845;SDS011;1938;50.812;7.738;2023-11-21T13:40:34;31.00;;;12.43;;
3845;SDS011;1938;50.812;7.738;2023-11-21T13:43:14;36.60;;;11.10;;
3845;SDS011;1938;50.812;7.738;2023-11-21T13:45:43;30.33;;;10.83;;
3845;SDS011;1938;50.812;7.738;2023-11-21T13:48:10;25.83;;;9.43;;
3845;SDS011;1938;50.812;7.738;2023-11-21T13:50:45;31.33;;;10.87;;
3845;SDS011;1938;50.812;7.738;2023-11-21T13:53:23;33.77;;;10.20;;
3845;SDS011;1938;50.812;7.738;2023-11-21T13:55:49;24.00;;;9.67;;
3845;SDS011;1938;50.812;7.738;2023-11-21T13:58:16;24.97;;;9.87;;
3845;SDS011;1938;50.812;7.738;2023-11-21T14:00:49;26.87;;;9.37;;
3845;SDS011;1938;50.812;7.738;2023-11-21T14:03:37;25.37;;;9.70;;
3845;SDS011;1938;50.812;7.738;2023-11-21T14:06:09;25.90;;;10.27;;
3845;SDS011;1938;50.812;7.738;2023-11-21T14:08:39;26.07;;;10.17;;
3845;SDS011;1938;50.812;7.738;2023-11-21T14:11:07;30.70;;;9.17;;
3845;SDS011;1938;50.812;7.738;2023-11-21T14:13:36;19.97;;;8.00;;
3845;SDS011;1938;50.812;7.738;2023-11-21T14:16:02;30.90;;;10.60;;
3845;SDS011;1938;50.812;7.738;2023-11-21T14:18:31;25.37;;;9.57;;
3845;SDS011;1938;50.812;7.738;2023-11-21T14:21:03;27.10;;;9.10;;
3845;SDS011;1938;50.812;7.738;2023-11-21T14:23:30;26.23;;;10.03;;
3845;SDS011;1938;50.812;7.738;2023-11-21T14:25:58;28.93;;;10.73;;
3845;SDS011;1938;50.812;7.738;2023-11-21T14:28:26;30.03;;;10.00;;
3845;SDS011;1938;50.812;7.738;2023-11-21T14:30:51;31.00;;;9.10;;
3845;SDS011;1938;50.812;7.738;2023-11-21T14:33:17;32.67;;;11.10;;
3845;SDS011;1938;50.812;7.738;2023-11-21T14:35:44;29.90;;;11.17;;
3845;SDS011;1938;50.812;7.738;2023-11-21T14:38:09;33.50;;;11.50;;
3845;SDS011;1938;50.812;7.738;2023-11-21T14:40:35;30.37;;;10.47;;
3845;SDS011;1938;50.812;7.738;2023-11-21T14:43:01;26.93;;;10.80;;
3845;SDS011;1938;50.812;7.738;2023-11-21T14:45:31;24.77;;;8.97;;
3845;SDS011;1938;50.812;7.738;2023-11-21T14:47:58;31.97;;;9.03;;
3845;SDS011;1938;50.812;7.738;2023-11-21T14:50:29;28.60;;;9.10;;
3845;SDS011;1938;50.812;7.738;2023-11-21T14:53:11;21.10;;;9.60;;
3845;SDS011;1938;50.812;7.738;2023-11-21T14:56:03;26.73;;;9.43;;
3845;SDS011;1938;50.812;7.738;2023-11-21T14:58:29;26.63;;;9.50;;
3845;SDS011;1938;50.812;7.738;2023-11-21T15:00:55;22.17;;;9.27;;
3845;SDS011;1938;50.812;7.738;2023-11-21T15:03:25;23.77;;;10.00;;
3845;SDS011;1938;50.812;7.738;2023-11-21T15:06:01;23.37;;;9.60;;
3845;SDS011;1938;50.812;7.738;2023-11-21T15:08:50;28.90;;;9.17;;
3845;SDS011;1938;50.812;7.738;2023-11-21T15:11:45;23.57;;;9.03;;
3845;SDS011;1938;50.812;7.738;2023-11-21T15:14:12;25.47;;;9.30;;
3845;SDS011;1938;50.812;7.738;2023-11-21T15:16:46;23.83;;;8.80;;